PWSweather.com
Personal Weather Stations
Station Observations
WISCHPK61
Green Bay Schmitt Park, Green Bay, WI 54311

Green Bay Schmitt ParkGreen Bay, WI 54311

Lat: 44.514277, Lon: -87.935067

Elevation: 735

Station Type: Acu Rite Pro Weather Center model 02032C

http://greenbayweathercam.com

High Low Average
Temperature 29.0°F-1.7°C 11.1°F-11.6°C 20.2°F-6.6°C
Dew Point 28.8°F-1.8°C 10.9°F-11.7°C 20.0°F-6.7°C
Winds Calm Calm Calm Calm Calm SSWCalm SSW
Wind Gusts -- -- --
Humidity 99% 99% 99%
Pressure 29.55 in1000.7 mb 29.16 in987.5 mb -
Precipitation 0.00 in0.0 mm - -
Hour Temp Dew Point Humidity Winds Wind Gusts Pressure Precip Precip Rate Daily Precip Total
12:00 AM 12.0°F-11.1°C 11.8°F-11.2°C 99% Calm Calm -- 29.56 in1001.0 mb - 0.00 in0.0 mm 0.00 in0.0 mm
01:00 AM 11.1°F-11.6°C 10.9°F-11.7°C 99% Calm Calm -- 29.55 in1000.7 mb - 0.00 in0.0 mm 0.00 in0.0 mm
02:00 AM 11.3°F-11.5°C 11.1°F-11.6°C 99% Calm Calm -- 29.55 in1000.7 mb - 0.00 in0.0 mm 0.00 in0.0 mm
03:00 AM 13.6°F-10.2°C 13.4°F-10.3°C 99% Calm Calm -- 29.54 in1000.3 mb - 0.00 in0.0 mm 0.00 in0.0 mm
04:00 AM 15.1°F-9.4°C 14.9°F-9.5°C 99% Calm Calm -- 29.52 in999.7 mb - 0.00 in0.0 mm 0.00 in0.0 mm
05:00 AM 15.8°F-9.0°C 15.6°F-9.1°C 99% Calm Calm -- 29.49 in998.6 mb - 0.00 in0.0 mm 0.00 in0.0 mm
06:00 AM 16.3°F-8.7°C 16.1°F-8.8°C 99% Calm Calm -- 29.46 in997.6 mb - 0.00 in0.0 mm 0.00 in0.0 mm
07:00 AM 17.1°F-8.3°C 16.9°F-8.4°C 99% Calm Calm -- 29.44 in997.0 mb - 0.00 in0.0 mm 0.00 in0.0 mm
08:00 AM 17.6°F-8.0°C 17.4°F-8.1°C 99% Calm Calm -- 29.44 in997.0 mb - 0.00 in0.0 mm 0.00 in0.0 mm
09:00 AM 18.4°F-7.6°C 18.1°F-7.7°C 99% Calm Calm -- 29.43 in996.6 mb - 0.00 in0.0 mm 0.00 in0.0 mm
10:00 AM 20.3°F-6.5°C 20.1°F-6.6°C 99% Calm Calm -- 29.41 in995.9 mb - 0.00 in0.0 mm 0.00 in0.0 mm
11:00 AM 22.6°F-5.2°C 22.4°F-5.3°C 99% Calm Calm -- 29.39 in995.3 mb - 0.00 in0.0 mm 0.00 in0.0 mm
12:00 PM 26.8°F-2.9°C 26.6°F-3.0°C 99% Calm Calm -- 29.32 in992.9 mb - 0.00 in0.0 mm 0.00 in0.0 mm
01:00 PM 29.0°F-1.7°C 28.8°F-1.8°C 99% Calm Calm -- 29.27 in991.2 mb - 0.00 in0.0 mm 0.00 in0.0 mm
02:00 PM 28.0°F-2.2°C 27.7°F-2.4°C 99% Calm Calm -- 29.23 in989.8 mb - 0.00 in0.0 mm 0.00 in0.0 mm
03:00 PM 27.3°F-2.6°C 27.1°F-2.7°C 99% Calm Calm -- 29.20 in988.8 mb - 0.00 in0.0 mm 0.00 in0.0 mm
04:00 PM 26.7°F-2.9°C 26.5°F-3.1°C 99% Calm Calm -- 29.20 in988.8 mb - 0.00 in0.0 mm 0.00 in0.0 mm
05:00 PM 24.9°F-3.9°C 24.6°F-4.1°C 99% Calm Calm -- 29.17 in987.8 mb - 0.00 in0.0 mm 0.00 in0.0 mm
06:00 PM 23.5°F-4.7°C 23.3°F-4.8°C 99% Calm Calm -- 29.16 in987.5 mb - 0.00 in0.0 mm 0.00 in0.0 mm
07:00 PM 22.3°F-5.4°C 22.1°F-5.5°C 99% Calm Calm -- 29.18 in988.1 mb - 0.00 in0.0 mm 0.00 in0.0 mm
08:00 PM 20.6°F-6.3°C 20.4°F-6.4°C 99% Calm Calm -- 29.18 in988.1 mb - 0.00 in0.0 mm 0.00 in0.0 mm
09:00 PM 19.2°F-7.1°C 19.0°F-7.2°C 99% Calm Calm -- 29.20 in988.8 mb - 0.00 in0.0 mm 0.00 in0.0 mm
10:00 PM 18.3°F-7.6°C 18.1°F-7.7°C 99% Calm Calm -- 29.19 in988.5 mb - 0.00 in0.0 mm 0.00 in0.0 mm
11:00 PM 19.4°F-7.0°C 19.2°F-7.1°C 99% Calm Calm -- 29.19 in988.5 mb - 0.00 in0.0 mm 0.00 in0.0 mm